createdAt,value
2023-03-20T00:01:03.279Z,100961.28
2023-03-20T00:06:05.608Z,100962.09
2023-03-20T00:11:17.230Z,100956.03
2023-03-20T00:16:20.532Z,100955.97
2023-03-20T00:21:22.343Z,100966.31
2023-03-20T00:26:26.576Z,100960.22
2023-03-20T00:31:30.410Z,100959.34
2023-03-20T00:36:32.261Z,100951.50
2023-03-20T00:41:37.862Z,100950.59
2023-03-20T00:46:41.447Z,100954.88
2023-03-20T00:51:43.199Z,100959.19
2023-03-20T00:56:45.754Z,100963.47
2023-03-20T01:01:48.936Z,100973.06
2023-03-20T01:06:50.831Z,100973.06
2023-03-20T01:11:54.095Z,100973.88
2023-03-20T01:16:57.234Z,100975.50
2023-03-20T01:21:59.123Z,100969.28
2023-03-20T01:27:04.054Z,100983.91
2023-03-20T01:32:09.638Z,101004.59
2023-03-20T01:37:12.437Z,101008.72
2023-03-20T01:42:14.289Z,101007.44
2023-03-20T01:47:19.869Z,101013.28
2023-03-20T01:52:22.026Z,101010.66
2023-03-20T01:57:24.346Z,101016.69
2023-03-20T02:02:29.439Z,101024.69
2023-03-20T02:07:31.938Z,101031.63
2023-03-20T02:12:38.550Z,101040.38
2023-03-20T02:17:43.544Z,101040.38
2023-03-20T02:23:21.120Z,101045.59
2023-03-20T02:28:54.216Z,101049.03
2023-03-20T02:34:19.309Z,101051.72
2023-03-20T02:39:32.376Z,101051.03
2023-03-20T02:44:36.842Z,101047.72
2023-03-20T02:49:49.037Z,101054.69
2023-03-20T02:54:55.339Z,101057.38
2023-03-20T03:00:00.109Z,101060.88
2023-03-20T03:05:03.546Z,101066.88
2023-03-20T03:10:08.562Z,101071.22
2023-03-20T03:15:13.583Z,101074.72
2023-03-20T03:20:19.870Z,101053.88
2023-03-20T03:25:24.186Z,101051.28
2023-03-20T03:30:27.093Z,101056.56
2023-03-20T03:35:31.123Z,101062.63
2023-03-20T03:40:35.589Z,101049.63
2023-03-20T03:45:38.694Z,101057.38
2023-03-20T03:50:46.382Z,101051.31
2023-03-20T03:55:50.814Z,101048.69
2023-03-20T04:00:52.962Z,101046.94
2023-03-20T04:05:54.896Z,101049.66
2023-03-20T04:10:57.913Z,101051.38
2023-03-20T04:15:59.626Z,101042.53
2023-03-20T04:21:03.252Z,101035.53
2023-03-20T04:26:06.903Z,101051.09
2023-03-20T04:31:10.269Z,101047.53
2023-03-20T04:36:21.654Z,101048.38
2023-03-20T04:41:26.498Z,101036.16
2023-03-20T04:46:30.817Z,101029.19
2023-03-20T04:51:33.275Z,101031.63
2023-03-20T04:56:36.479Z,101024.56
2023-03-20T05:01:51.224Z,101023.63
2023-03-20T05:06:53.132Z,101019.28
2023-03-20T05:11:59.019Z,101023.63
2023-03-20T05:17:36.353Z,101026.25
2023-03-20T05:22:56.447Z,101023.69
2023-03-20T05:28:18.224Z,101027.88
2023-03-20T05:33:28.017Z,101031.34
2023-03-20T05:38:43.426Z,101043.44
2023-03-20T05:43:57.135Z,101047.75
2023-03-20T05:49:17.383Z,101047.75
2023-03-20T05:54:37.858Z,101045.25
2023-03-20T05:59:59.416Z,101051.44
2023-03-20T06:05:19.587Z,101047.28
2023-03-20T06:10:27.526Z,101054.31
2023-03-20T06:15:30.689Z,101045.69
2023-03-20T06:20:41.863Z,101054.41
2023-03-20T06:25:44.104Z,101052.94
2023-03-20T06:30:47.724Z,101067.03
2023-03-20T06:35:54.389Z,101065.44
2023-03-20T06:40:57.425Z,101077.63
2023-03-20T06:46:00.484Z,101070.94
2023-03-20T06:51:04.801Z,101066.81
2023-03-20T06:56:11.888Z,101063.50
2023-03-20T07:01:17.772Z,101069.72
2023-03-20T07:06:19.667Z,101075.06
2023-03-20T07:11:22.385Z,101077.75
2023-03-20T07:16:28.603Z,101088.19
2023-03-20T07:21:30.622Z,101096.97
2023-03-20T07:26:32.850Z,101097.94
2023-03-20T07:31:36.399Z,101105.72
2023-03-20T07:36:44.804Z,101114.97
2023-03-20T07:41:50.674Z,101106.94
2023-03-20T07:47:06.021Z,101104.31
2023-03-20T07:52:07.847Z,101098.97
2023-03-20T07:57:09.696Z,101082.50
2023-03-20T08:02:15.277Z,101087.28
2023-03-20T08:07:16.926Z,101096.09
2023-03-20T08:12:18.803Z,101100.44
2023-03-20T08:17:22.119Z,101103.16
2023-03-20T08:22:23.884Z,101097.16
2023-03-20T08:27:25.902Z,101101.69
2023-03-20T08:32:29.002Z,101103.47
2023-03-20T08:37:30.682Z,101104.47
2023-03-20T08:42:33.046Z,101095.69
2023-03-20T08:47:36.141Z,101095.69
2023-03-20T08:52:37.806Z,101119.13
2023-03-20T08:57:39.436Z,101107.69
2023-03-20T09:02:42.542Z,101124.09
2023-03-20T09:07:44.299Z,101126.66
2023-03-20T09:12:46.061Z,101124.88
2023-03-20T09:17:49.045Z,101126.69
2023-03-20T09:22:50.765Z,101138.09
2023-03-20T09:27:55.149Z,101137.94
2023-03-20T09:32:58.213Z,101144.03
2023-03-20T09:37:59.935Z,101143.09
2023-03-20T09:43:05.350Z,101133.56
2023-03-20T09:48:11.582Z,101144.84
2023-03-20T09:53:15.445Z,101150.91
2023-03-20T09:58:20.607Z,101151.72
2023-03-20T10:03:26.941Z,101152.63
2023-03-20T10:08:29.607Z,101156.13
2023-03-20T10:13:52.218Z,101158.81
2023-03-20T10:18:59.172Z,101154.31
2023-03-20T10:24:03.251Z,101152.63
2023-03-20T10:29:06.713Z,101155.19
2023-03-20T10:34:17.662Z,101163.03
2023-03-20T10:39:22.120Z,101149.22
2023-03-20T10:44:27.378Z,101141.47
2023-03-20T10:49:34.503Z,101141.94
2023-03-20T10:54:38.932Z,101140.19
2023-03-20T10:59:42.096Z,101129.66
2023-03-20T11:04:45.165Z,101139.19
2023-03-20T11:09:46.838Z,101137.47
2023-03-20T11:14:48.512Z,101122.84
2023-03-20T11:19:51.462Z,101120.44
2023-03-20T11:24:54.123Z,101103.97
2023-03-20T11:29:56.014Z,101116.19
2023-03-20T11:35:18.654Z,101098.72
2023-03-20T11:40:22.782Z,101098.63
2023-03-20T11:45:25.562Z,101090.81
2023-03-20T11:50:31.348Z,101091.72
2023-03-20T11:55:33.481Z,101085.59
2023-03-20T12:00:36.904Z,101079.41
2023-03-20T12:05:40.094Z,101071.44
2023-03-20T12:10:42.844Z,101075.84
2023-03-20T12:15:45.957Z,101076.66
2023-03-20T12:20:54.053Z,101068.75
2023-03-20T12:25:57.331Z,101079.38
2023-03-20T12:31:04.729Z,101055.00
2023-03-20T12:36:11.409Z,101062.00
2023-03-20T12:41:15.266Z,101064.63
2023-03-20T12:46:23.471Z,101072.44
2023-03-20T12:51:31.828Z,101057.63
2023-03-20T12:56:46.263Z,101049.75
2023-03-20T13:01:52.879Z,101034.00
2023-03-20T13:06:56.782Z,101037.50
2023-03-20T13:12:00.511Z,101034.03
2023-03-20T13:17:04.496Z,101049.72
2023-03-20T13:22:08.728Z,101042.69
2023-03-20T13:27:23.689Z,101035.72
2023-03-20T13:32:31.214Z,101028.72
2023-03-20T13:37:36.033Z,101029.63
2023-03-20T13:42:39.318Z,101035.78
2023-03-20T13:47:41.045Z,101017.41
2023-03-20T13:52:46.268Z,101020.00
2023-03-20T13:58:03.701Z,101024.34
2023-03-20T14:03:15.335Z,101019.94
2023-03-20T14:08:23.014Z,101011.19
2023-03-20T14:13:27.459Z,101006.81
2023-03-20T14:18:30.122Z,101008.63
2023-03-20T14:23:35.534Z,101013.84
2023-03-20T14:28:53.651Z,101005.16
2023-03-20T14:34:09.463Z,100999.03
2023-03-20T14:39:15.585Z,101003.44
2023-03-20T14:44:24.148Z,100999.06
2023-03-20T14:49:46.440Z,101000.78
2023-03-20T14:54:53.891Z,101007.75
2023-03-20T14:59:55.667Z,101002.47
2023-03-20T15:04:57.663Z,101004.19
2023-03-20T15:10:02.857Z,101009.41
2023-03-20T15:15:05.706Z,101007.63
2023-03-20T15:20:12.792Z,101004.97
2023-03-20T15:25:18.492Z,101004.94
2023-03-20T15:30:21.113Z,100993.63
2023-03-20T15:35:23.611Z,100998.88
2023-03-20T15:40:37.087Z,101001.47
2023-03-20T15:45:45.624Z,101001.41
2023-03-20T15:50:50.460Z,101003.16
2023-03-20T15:56:16.933Z,100986.50
2023-03-20T16:01:20.746Z,100990.84
2023-03-20T16:06:22.925Z,101002.94
2023-03-20T16:11:33.569Z,101002.91
2023-03-20T16:16:37.475Z,101005.47
2023-03-20T16:21:40.350Z,101003.75
2023-03-20T16:26:44.862Z,101008.94
2023-03-20T16:31:52.981Z,101013.28
2023-03-20T16:36:57.404Z,101012.31
2023-03-20T16:42:11.693Z,101007.91
2023-03-20T16:47:17.595Z,101006.13
2023-03-20T16:52:22.347Z,100996.53
2023-03-20T16:57:25.807Z,101007.81
2023-03-20T17:02:29.617Z,101003.41
2023-03-20T17:07:31.316Z,101002.47
2023-03-20T17:12:36.578Z,101011.06
2023-03-20T17:17:38.366Z,101008.47
2023-03-20T17:22:40.142Z,101004.03
2023-03-20T17:27:44.000Z,101012.66
2023-03-20T17:32:46.312Z,101016.06
2023-03-20T17:37:48.822Z,101023.00
2023-03-20T17:42:52.165Z,101015.19
2023-03-20T17:47:54.136Z,101010.78
2023-03-20T17:52:55.867Z,101004.59
2023-03-20T17:57:58.879Z,101001.06
2023-03-20T18:03:00.546Z,101003.66
2023-03-20T18:08:02.684Z,101009.75
2023-03-20T18:13:05.752Z,101015.84
2023-03-20T18:18:08.955Z,101017.50
2023-03-20T18:23:10.853Z,101016.56
2023-03-20T18:28:22.693Z,101022.66
2023-03-20T18:33:27.537Z,101020.91
2023-03-20T18:38:30.602Z,101020.94
2023-03-20T18:43:33.795Z,101030.56
2023-03-20T18:48:35.684Z,101020.91
2023-03-20T18:53:38.031Z,101029.59
2023-03-20T18:58:41.347Z,101019.16
2023-03-20T19:03:43.344Z,101034.84
2023-03-20T19:08:45.359Z,101029.63
2023-03-20T19:13:50.742Z,101038.31
2023-03-20T19:18:53.043Z,101026.13
2023-03-20T19:23:56.869Z,101031.34
2023-03-20T19:29:01.351Z,101031.38
2023-03-20T19:34:03.364Z,101029.59
2023-03-20T19:39:06.429Z,101030.44
2023-03-20T19:44:09.610Z,101028.66
2023-03-20T19:49:17.948Z,101029.47
2023-03-20T19:54:19.905Z,101028.47
2023-03-20T19:59:23.353Z,101024.94
2023-03-20T20:04:25.064Z,101031.94
2023-03-20T20:09:28.556Z,101031.94
2023-03-20T20:14:35.134Z,101035.28
2023-03-20T20:19:37.062Z,101030.06
2023-03-20T20:24:39.242Z,101021.28
2023-03-20T20:29:42.487Z,101024.75
2023-03-20T20:40:08.726Z,101020.34
2023-03-20T20:45:12.370Z,101018.56
2023-03-20T20:50:14.934Z,101017.63
2023-03-20T20:55:36.691Z,101021.91
2023-03-20T21:00:51.243Z,101018.41
2023-03-20T21:05:53.556Z,101016.56
2023-03-20T21:10:55.275Z,101013.09
2023-03-20T21:15:58.948Z,101019.13
2023-03-20T21:21:04.659Z,101013.00
2023-03-20T21:26:07.283Z,101019.88
2023-03-20T21:31:24.567Z,101016.38
2023-03-20T21:36:28.444Z,101028.53
2023-03-20T21:41:30.194Z,101026.72
2023-03-20T21:58:02.473Z,101032.09
2023-03-20T22:02:43.717Z,101027.56
2023-03-20T22:08:46.876Z,101028.38
2023-03-20T22:19:34.279Z,101030.16
2023-03-20T22:24:44.868Z,101037.06
2023-03-20T22:30:00.611Z,101038.00
2023-03-20T22:35:30.900Z,101032.72
2023-03-20T22:50:28.970Z,101046.06
2023-03-20T22:55:30.646Z,101043.38
2023-03-20T23:00:32.341Z,101043.47
2023-03-20T23:05:37.384Z,101040.78
2023-03-20T23:10:58.620Z,101041.63
2023-03-20T23:16:00.315Z,101045.06
2023-03-20T23:21:03.586Z,101033.59
2023-03-20T23:26:06.120Z,101027.38
2023-03-20T23:31:11.209Z,101028.13
2023-03-20T23:36:28.850Z,101026.19
2023-03-20T23:42:02.435Z,101023.66
2023-03-20T23:46:59.753Z,101021.31
2023-03-20T23:52:04.379Z,101016.25
2023-03-20T23:57:06.270Z,101007.53
